sensor_id;sensor_type;location;lat;lon;timestamp;P1;durP1;ratioP1;P2;durP2;ratioP2
17564;SDS011;62994;52.126;5.596;2024-03-02T00:00:49;2.20;;;1.25;;
17564;SDS011;62994;52.126;5.596;2024-03-02T00:03:17;1.67;;;1.00;;
17564;SDS011;62994;52.126;5.596;2024-03-02T00:05:50;0.90;;;0.90;;
17564;SDS011;62994;52.126;5.596;2024-03-02T00:08:23;4.97;;;1.20;;
17564;SDS011;62994;52.126;5.596;2024-03-02T00:10:51;1.00;;;0.90;;
17564;SDS011;62994;52.126;5.596;2024-03-02T00:13:23;1.20;;;1.00;;
17564;SDS011;62994;52.126;5.596;2024-03-02T00:15:51;1.55;;;1.13;;
17564;SDS011;62994;52.126;5.596;2024-03-02T00:18:23;1.05;;;1.02;;
17564;SDS011;62994;52.126;5.596;2024-03-02T00:20:54;1.08;;;1.02;;
17564;SDS011;62994;52.126;5.596;2024-03-02T00:23:24;0.90;;;0.90;;
17564;SDS011;62994;52.126;5.596;2024-03-02T00:25:56;0.77;;;0.77;;
17564;SDS011;62994;52.126;5.596;2024-03-02T00:28:25;1.40;;;0.90;;
17564;SDS011;62994;52.126;5.596;2024-03-02T00:30:55;1.90;;;0.85;;
17564;SDS011;62994;52.126;5.596;2024-03-02T00:33:26;1.60;;;1.20;;
17564;SDS011;62994;52.126;5.596;2024-03-02T00:35:56;1.10;;;1.00;;
17564;SDS011;62994;52.126;5.596;2024-03-02T00:38:24;0.87;;;0.87;;
17564;SDS011;62994;52.126;5.596;2024-03-02T00:40:52;1.30;;;1.20;;
17564;SDS011;62994;52.126;5.596;2024-03-02T00:43:37;0.85;;;0.85;;
17564;SDS011;62994;52.126;5.596;2024-03-02T00:46:08;1.55;;;0.95;;
17564;SDS011;62994;52.126;5.596;2024-03-02T00:48:37;0.90;;;0.90;;
17564;SDS011;62994;52.126;5.596;2024-03-02T00:51:06;3.55;;;0.77;;
17564;SDS011;62994;52.126;5.596;2024-03-02T00:53:34;1.10;;;1.00;;
17564;SDS011;62994;52.126;5.596;2024-03-02T00:56:01;1.10;;;1.00;;
17564;SDS011;62994;52.126;5.596;2024-03-02T00:58:28;1.00;;;0.90;;
17564;SDS011;62994;52.126;5.596;2024-03-02T01:00:56;0.90;;;0.90;;
17564;SDS011;62994;52.126;5.596;2024-03-02T01:03:23;0.70;;;0.70;;
17564;SDS011;62994;52.126;5.596;2024-03-02T01:05:50;0.70;;;0.70;;
17564;SDS011;62994;52.126;5.596;2024-03-02T01:08:19;2.78;;;1.08;;
17564;SDS011;62994;52.126;5.596;2024-03-02T01:10:49;1.05;;;0.95;;
17564;SDS011;62994;52.126;5.596;2024-03-02T01:13:17;0.90;;;0.90;;
17564;SDS011;62994;52.126;5.596;2024-03-02T01:15:44;0.60;;;0.60;;
17564;SDS011;62994;52.126;5.596;2024-03-02T01:18:11;1.33;;;0.60;;
17564;SDS011;62994;52.126;5.596;2024-03-02T01:20:38;1.20;;;0.40;;
17564;SDS011;62994;52.126;5.596;2024-03-02T01:23:05;0.35;;;0.35;;
17564;SDS011;62994;52.126;5.596;2024-03-02T01:25:35;1.00;;;0.50;;
17564;SDS011;62994;52.126;5.596;2024-03-02T01:28:02;0.50;;;0.50;;
17564;SDS011;62994;52.126;5.596;2024-03-02T01:30:29;0.47;;;0.40;;
17564;SDS011;62994;52.126;5.596;2024-03-02T01:32:56;2.53;;;0.60;;
17564;SDS011;62994;52.126;5.596;2024-03-02T01:35:24;0.47;;;0.47;;
17564;SDS011;62994;52.126;5.596;2024-03-02T01:37:51;0.30;;;0.30;;
17564;SDS011;62994;52.126;5.596;2024-03-02T01:40:19;0.32;;;0.22;;
17564;SDS011;62994;52.126;5.596;2024-03-02T01:42:47;0.40;;;0.40;;
17564;SDS011;62994;52.126;5.596;2024-03-02T01:45:15;0.43;;;0.40;;
17564;SDS011;62994;52.126;5.596;2024-03-02T01:47:42;0.35;;;0.35;;
17564;SDS011;62994;52.126;5.596;2024-03-02T01:50:10;0.35;;;0.35;;
17564;SDS011;62994;52.126;5.596;2024-03-02T01:52:38;0.47;;;0.32;;
17564;SDS011;62994;52.126;5.596;2024-03-02T01:55:06;0.50;;;0.32;;
17564;SDS011;62994;52.126;5.596;2024-03-02T01:57:33;0.20;;;0.20;;
17564;SDS011;62994;52.126;5.596;2024-03-02T02:00:02;0.20;;;0.20;;
17564;SDS011;62994;52.126;5.596;2024-03-02T02:02:30;0.43;;;0.40;;
17564;SDS011;62994;52.126;5.596;2024-03-02T02:04:58;0.35;;;0.28;;
17564;SDS011;62994;52.126;5.596;2024-03-02T02:07:25;0.40;;;0.40;;
17564;SDS011;62994;52.126;5.596;2024-03-02T02:09:52;0.38;;;0.38;;
17564;SDS011;62994;52.126;5.596;2024-03-02T02:12:19;0.28;;;0.28;;
17564;SDS011;62994;52.126;5.596;2024-03-02T02:14:47;0.30;;;0.30;;
17564;SDS011;62994;52.126;5.596;2024-03-02T02:17:16;0.55;;;0.40;;
17564;SDS011;62994;52.126;5.596;2024-03-02T02:19:44;0.17;;;0.17;;
17564;SDS011;62994;52.126;5.596;2024-03-02T02:22:12;0.47;;;0.47;;
17564;SDS011;62994;52.126;5.596;2024-03-02T02:24:40;0.22;;;0.22;;
17564;SDS011;62994;52.126;5.596;2024-03-02T02:27:10;0.30;;;0.30;;
17564;SDS011;62994;52.126;5.596;2024-03-02T02:29:39;0.30;;;0.30;;
17564;SDS011;62994;52.126;5.596;2024-03-02T02:32:07;0.40;;;0.40;;
17564;SDS011;62994;52.126;5.596;2024-03-02T02:34:34;0.22;;;0.22;;
17564;SDS011;62994;52.126;5.596;2024-03-02T02:37:01;0.57;;;0.50;;
17564;SDS011;62994;52.126;5.596;2024-03-02T02:39:29;0.20;;;0.20;;
17564;SDS011;62994;52.126;5.596;2024-03-02T02:41:56;1.08;;;0.50;;
17564;SDS011;62994;52.126;5.596;2024-03-02T02:44:25;0.30;;;0.30;;
17564;SDS011;62994;52.126;5.596;2024-03-02T02:46:53;0.57;;;0.32;;
17564;SDS011;62994;52.126;5.596;2024-03-02T02:49:20;0.35;;;0.35;;
17564;SDS011;62994;52.126;5.596;2024-03-02T02:51:47;0.68;;;0.38;;
17564;SDS011;62994;52.126;5.596;2024-03-02T02:54:14;0.20;;;0.20;;
17564;SDS011;62994;52.126;5.596;2024-03-02T02:56:43;0.20;;;0.20;;
17564;SDS011;62994;52.126;5.596;2024-03-02T02:59:10;0.15;;;0.15;;
17564;SDS011;62994;52.126;5.596;2024-03-02T03:01:37;0.40;;;0.40;;
17564;SDS011;62994;52.126;5.596;2024-03-02T03:04:05;1.58;;;0.30;;
17564;SDS011;62994;52.126;5.596;2024-03-02T03:06:31;0.75;;;0.50;;
17564;SDS011;62994;52.126;5.596;2024-03-02T03:08:59;0.25;;;0.25;;
17564;SDS011;62994;52.126;5.596;2024-03-02T03:11:26;0.30;;;0.30;;
17564;SDS011;62994;52.126;5.596;2024-03-02T03:13:55;0.43;;;0.43;;
17564;SDS011;62994;52.126;5.596;2024-03-02T03:16:22;0.32;;;0.32;;
17564;SDS011;62994;52.126;5.596;2024-03-02T03:18:50;0.30;;;0.30;;
17564;SDS011;62994;52.126;5.596;2024-03-02T03:21:19;0.32;;;0.30;;
17564;SDS011;62994;52.126;5.596;2024-03-02T03:23:46;0.38;;;0.38;;
17564;SDS011;62994;52.126;5.596;2024-03-02T03:26:13;0.93;;;0.32;;
17564;SDS011;62994;52.126;5.596;2024-03-02T03:28:40;0.38;;;0.38;;
17564;SDS011;62994;52.126;5.596;2024-03-02T03:31:11;0.20;;;0.20;;
17564;SDS011;62994;52.126;5.596;2024-03-02T03:33:43;0.85;;;0.63;;
17564;SDS011;62994;52.126;5.596;2024-03-02T03:36:10;0.65;;;0.40;;
17564;SDS011;62994;52.126;5.596;2024-03-02T03:38:37;0.30;;;0.30;;
17564;SDS011;62994;52.126;5.596;2024-03-02T03:41:04;0.30;;;0.30;;
17564;SDS011;62994;52.126;5.596;2024-03-02T03:43:32;0.50;;;0.50;;
17564;SDS011;62994;52.126;5.596;2024-03-02T03:45:59;0.82;;;0.55;;
17564;SDS011;62994;52.126;5.596;2024-03-02T03:48:27;0.40;;;0.40;;
17564;SDS011;62994;52.126;5.596;2024-03-02T03:50:55;0.40;;;0.40;;
17564;SDS011;62994;52.126;5.596;2024-03-02T03:53:24;1.98;;;0.40;;
17564;SDS011;62994;52.126;5.596;2024-03-02T03:55:52;0.28;;;0.28;;
17564;SDS011;62994;52.126;5.596;2024-03-02T03:58:19;0.77;;;0.77;;
17564;SDS011;62994;52.126;5.596;2024-03-02T04:00:46;0.30;;;0.30;;
17564;SDS011;62994;52.126;5.596;2024-03-02T04:03:13;0.40;;;0.40;;
17564;SDS011;62994;52.126;5.596;2024-03-02T04:05:45;0.50;;;0.50;;
17564;SDS011;62994;52.126;5.596;2024-03-02T04:08:15;0.40;;;0.40;;
17564;SDS011;62994;52.126;5.596;2024-03-02T04:10:42;0.30;;;0.30;;
17564;SDS011;62994;52.126;5.596;2024-03-02T04:13:09;1.15;;;0.38;;
17564;SDS011;62994;52.126;5.596;2024-03-02T04:15:36;0.30;;;0.30;;
17564;SDS011;62994;52.126;5.596;2024-03-02T04:18:03;2.75;;;0.32;;
17564;SDS011;62994;52.126;5.596;2024-03-02T04:20:30;0.20;;;0.20;;
17564;SDS011;62994;52.126;5.596;2024-03-02T04:22:59;0.50;;;0.50;;
17564;SDS011;62994;52.126;5.596;2024-03-02T04:25:26;1.35;;;0.50;;
17564;SDS011;62994;52.126;5.596;2024-03-02T04:27:53;0.22;;;0.22;;
17564;SDS011;62994;52.126;5.596;2024-03-02T04:30:27;0.50;;;0.32;;
17564;SDS011;62994;52.126;5.596;2024-03-02T04:32:55;0.20;;;0.20;;
17564;SDS011;62994;52.126;5.596;2024-03-02T04:35:22;1.55;;;0.30;;
17564;SDS011;62994;52.126;5.596;2024-03-02T04:37:50;0.28;;;0.28;;
17564;SDS011;62994;52.126;5.596;2024-03-02T04:40:18;0.20;;;0.20;;
17564;SDS011;62994;52.126;5.596;2024-03-02T04:42:46;0.30;;;0.20;;
17564;SDS011;62994;52.126;5.596;2024-03-02T04:45:13;0.43;;;0.20;;
17564;SDS011;62994;52.126;5.596;2024-03-02T04:47:40;1.67;;;0.30;;
17564;SDS011;62994;52.126;5.596;2024-03-02T04:50:07;0.20;;;0.20;;
17564;SDS011;62994;52.126;5.596;2024-03-02T04:52:35;0.80;;;0.30;;
17564;SDS011;62994;52.126;5.596;2024-03-02T04:55:02;0.60;;;0.50;;
17564;SDS011;62994;52.126;5.596;2024-03-02T04:57:50;0.20;;;0.20;;
17564;SDS011;62994;52.126;5.596;2024-03-02T05:00:20;0.30;;;0.30;;
17564;SDS011;62994;52.126;5.596;2024-03-02T05:02:47;0.30;;;0.30;;
17564;SDS011;62994;52.126;5.596;2024-03-02T05:05:14;0.35;;;0.35;;
17564;SDS011;62994;52.126;5.596;2024-03-02T05:07:41;0.63;;;0.50;;
17564;SDS011;62994;52.126;5.596;2024-03-02T05:10:09;0.40;;;0.30;;
17564;SDS011;62994;52.126;5.596;2024-03-02T05:12:36;0.60;;;0.47;;
17564;SDS011;62994;52.126;5.596;2024-03-02T05:15:23;0.40;;;0.40;;
17564;SDS011;62994;52.126;5.596;2024-03-02T05:17:50;0.55;;;0.30;;
17564;SDS011;62994;52.126;5.596;2024-03-02T05:20:18;0.40;;;0.30;;
17564;SDS011;62994;52.126;5.596;2024-03-02T05:22:45;0.40;;;0.40;;
17564;SDS011;62994;52.126;5.596;2024-03-02T05:25:15;0.80;;;0.30;;
17564;SDS011;62994;52.126;5.596;2024-03-02T05:27:42;0.32;;;0.32;;
17564;SDS011;62994;52.126;5.596;2024-03-02T05:30:09;3.22;;;0.50;;
17564;SDS011;62994;52.126;5.596;2024-03-02T05:32:39;1.85;;;0.60;;
17564;SDS011;62994;52.126;5.596;2024-03-02T05:35:06;0.73;;;0.30;;
17564;SDS011;62994;52.126;5.596;2024-03-02T05:37:35;0.60;;;0.40;;
17564;SDS011;62994;52.126;5.596;2024-03-02T05:40:03;0.22;;;0.22;;
17564;SDS011;62994;52.126;5.596;2024-03-02T05:42:31;1.42;;;0.40;;
17564;SDS011;62994;52.126;5.596;2024-03-02T05:44:58;0.30;;;0.30;;
17564;SDS011;62994;52.126;5.596;2024-03-02T05:47:25;0.45;;;0.40;;
17564;SDS011;62994;52.126;5.596;2024-03-02T05:49:54;0.30;;;0.30;;
17564;SDS011;62994;52.126;5.596;2024-03-02T05:52:21;0.35;;;0.35;;
17564;SDS011;62994;52.126;5.596;2024-03-02T05:54:48;0.38;;;0.32;;
17564;SDS011;62994;52.126;5.596;2024-03-02T05:57:15;0.35;;;0.28;;
17564;SDS011;62994;52.126;5.596;2024-03-02T05:59:57;1.47;;;0.40;;
17564;SDS011;62994;52.126;5.596;2024-03-02T06:02:25;0.47;;;0.40;;
17564;SDS011;62994;52.126;5.596;2024-03-02T06:04:55;0.63;;;0.52;;
17564;SDS011;62994;52.126;5.596;2024-03-02T06:07:24;0.57;;;0.40;;
17564;SDS011;62994;52.126;5.596;2024-03-02T06:09:52;0.52;;;0.45;;
17564;SDS011;62994;52.126;5.596;2024-03-02T06:12:19;0.40;;;0.40;;
17564;SDS011;62994;52.126;5.596;2024-03-02T06:14:47;1.40;;;0.47;;
17564;SDS011;62994;52.126;5.596;2024-03-02T06:17:15;0.38;;;0.38;;
17564;SDS011;62994;52.126;5.596;2024-03-02T06:19:43;1.50;;;0.50;;
17564;SDS011;62994;52.126;5.596;2024-03-02T06:22:14;0.60;;;0.60;;
17564;SDS011;62994;52.126;5.596;2024-03-02T06:24:42;0.43;;;0.43;;
17564;SDS011;62994;52.126;5.596;2024-03-02T06:27:09;0.40;;;0.38;;
17564;SDS011;62994;52.126;5.596;2024-03-02T06:29:36;0.93;;;0.50;;
17564;SDS011;62994;52.126;5.596;2024-03-02T06:32:03;1.52;;;0.60;;
17564;SDS011;62994;52.126;5.596;2024-03-02T06:34:30;0.52;;;0.52;;
17564;SDS011;62994;52.126;5.596;2024-03-02T06:36:57;0.80;;;0.30;;
17564;SDS011;62994;52.126;5.596;2024-03-02T06:39:26;0.70;;;0.52;;
17564;SDS011;62994;52.126;5.596;2024-03-02T06:41:53;0.35;;;0.35;;
17564;SDS011;62994;52.126;5.596;2024-03-02T06:44:21;0.60;;;0.40;;
17564;SDS011;62994;52.126;5.596;2024-03-02T06:46:48;0.65;;;0.40;;
17564;SDS011;62994;52.126;5.596;2024-03-02T06:49:15;3.17;;;0.40;;
17564;SDS011;62994;52.126;5.596;2024-03-02T06:51:44;1.27;;;0.60;;
17564;SDS011;62994;52.126;5.596;2024-03-02T06:54:11;0.63;;;0.38;;
17564;SDS011;62994;52.126;5.596;2024-03-02T06:56:39;0.73;;;0.32;;
17564;SDS011;62994;52.126;5.596;2024-03-02T06:59:09;0.60;;;0.60;;
17564;SDS011;62994;52.126;5.596;2024-03-02T07:01:36;0.57;;;0.57;;
17564;SDS011;62994;52.126;5.596;2024-03-02T07:04:03;1.77;;;0.93;;
17564;SDS011;62994;52.126;5.596;2024-03-02T07:06:31;1.38;;;0.65;;
17564;SDS011;62994;52.126;5.596;2024-03-02T07:08:59;1.67;;;0.75;;
17564;SDS011;62994;52.126;5.596;2024-03-02T07:11:26;2.45;;;0.80;;
17564;SDS011;62994;52.126;5.596;2024-03-02T07:13:54;1.95;;;1.02;;
17564;SDS011;62994;52.126;5.596;2024-03-02T07:16:21;1.30;;;0.75;;
17564;SDS011;62994;52.126;5.596;2024-03-02T07:18:53;3.38;;;0.50;;
17564;SDS011;62994;52.126;5.596;2024-03-02T07:21:23;0.57;;;0.47;;
17564;SDS011;62994;52.126;5.596;2024-03-02T07:23:50;2.70;;;0.55;;
17564;SDS011;62994;52.126;5.596;2024-03-02T07:26:17;0.60;;;0.60;;
17564;SDS011;62994;52.126;5.596;2024-03-02T07:28:45;0.65;;;0.60;;
17564;SDS011;62994;52.126;5.596;2024-03-02T07:31:17;0.60;;;0.60;;
17564;SDS011;62994;52.126;5.596;2024-03-02T07:33:44;0.75;;;0.70;;
17564;SDS011;62994;52.126;5.596;2024-03-02T07:36:19;0.43;;;0.43;;
17564;SDS011;62994;52.126;5.596;2024-03-02T07:38:46;1.85;;;0.55;;
17564;SDS011;62994;52.126;5.596;2024-03-02T07:41:15;0.47;;;0.47;;
17564;SDS011;62994;52.126;5.596;2024-03-02T07:43:48;0.80;;;0.57;;
17564;SDS011;62994;52.126;5.596;2024-03-02T07:46:32;2.33;;;0.80;;
17564;SDS011;62994;52.126;5.596;2024-03-02T07:48:59;0.77;;;0.70;;
17564;SDS011;62994;52.126;5.596;2024-03-02T07:51:27;1.17;;;0.77;;
17564;SDS011;62994;52.126;5.596;2024-03-02T07:53:54;1.55;;;0.68;;
17564;SDS011;62994;52.126;5.596;2024-03-02T07:56:21;1.15;;;0.60;;
17564;SDS011;62994;52.126;5.596;2024-03-02T07:58:48;1.15;;;0.70;;
17564;SDS011;62994;52.126;5.596;2024-03-02T08:01:15;2.30;;;0.60;;
17564;SDS011;62994;52.126;5.596;2024-03-02T08:03:49;5.18;;;0.70;;
17564;SDS011;62994;52.126;5.596;2024-03-02T08:06:17;3.22;;;0.80;;
17564;SDS011;62994;52.126;5.596;2024-03-02T08:08:46;0.52;;;0.52;;
17564;SDS011;62994;52.126;5.596;2024-03-02T08:11:13;0.50;;;0.47;;
17564;SDS011;62994;52.126;5.596;2024-03-02T08:13:40;3.92;;;0.85;;
17564;SDS011;62994;52.126;5.596;2024-03-02T08:16:08;0.52;;;0.52;;
17564;SDS011;62994;52.126;5.596;2024-03-02T08:18:40;0.80;;;0.80;;
17564;SDS011;62994;52.126;5.596;2024-03-02T08:21:08;0.47;;;0.47;;
17564;SDS011;62994;52.126;5.596;2024-03-02T08:23:35;0.40;;;0.40;;
17564;SDS011;62994;52.126;5.596;2024-03-02T08:26:03;2.25;;;0.70;;
17564;SDS011;62994;52.126;5.596;2024-03-02T08:28:32;0.82;;;0.60;;
17564;SDS011;62994;52.126;5.596;2024-03-02T08:31:00;2.25;;;0.60;;
17564;SDS011;62994;52.126;5.596;2024-03-02T08:33:27;0.43;;;0.43;;
17564;SDS011;62994;52.126;5.596;2024-03-02T08:35:54;0.55;;;0.52;;
17564;SDS011;62994;52.126;5.596;2024-03-02T08:38:25;0.75;;;0.60;;
17564;SDS011;62994;52.126;5.596;2024-03-02T08:40:53;0.52;;;0.50;;
17564;SDS011;62994;52.126;5.596;2024-03-02T08:43:20;4.63;;;0.90;;
17564;SDS011;62994;52.126;5.596;2024-03-02T08:45:48;3.05;;;0.70;;
17564;SDS011;62994;52.126;5.596;2024-03-02T08:48:16;0.95;;;0.52;;
17564;SDS011;62994;52.126;5.596;2024-03-02T08:50:43;1.58;;;0.60;;
17564;SDS011;62994;52.126;5.596;2024-03-02T08:53:10;1.02;;;0.40;;
17564;SDS011;62994;52.126;5.596;2024-03-02T08:55:39;0.57;;;0.50;;
17564;SDS011;62994;52.126;5.596;2024-03-02T08:58:06;0.40;;;0.40;;
17564;SDS011;62994;52.126;5.596;2024-03-02T09:00:34;1.25;;;0.50;;
17564;SDS011;62994;52.126;5.596;2024-03-02T09:03:01;0.85;;;0.57;;
17564;SDS011;62994;52.126;5.596;2024-03-02T09:05:28;2.58;;;0.88;;
17564;SDS011;62994;52.126;5.596;2024-03-02T09:07:57;1.15;;;0.98;;
17564;SDS011;62994;52.126;5.596;2024-03-02T09:10:24;0.85;;;0.68;;
17564;SDS011;62994;52.126;5.596;2024-03-02T09:12:56;0.82;;;0.52;;
17564;SDS011;62994;52.126;5.596;2024-03-02T09:15:24;3.85;;;0.70;;
17564;SDS011;62994;52.126;5.596;2024-03-02T09:17:51;1.83;;;0.80;;
17564;SDS011;62994;52.126;5.596;2024-03-02T09:20:20;3.50;;;1.00;;
17564;SDS011;62994;52.126;5.596;2024-03-02T09:22:48;1.98;;;0.80;;
17564;SDS011;62994;52.126;5.596;2024-03-02T09:25:14;2.67;;;0.95;;
17564;SDS011;62994;52.126;5.596;2024-03-02T09:27:41;1.55;;;0.77;;
17564;SDS011;62994;52.126;5.596;2024-03-02T09:30:12;3.78;;;0.88;;
17564;SDS011;62994;52.126;5.596;2024-03-02T09:32:40;0.85;;;0.55;;
17564;SDS011;62994;52.126;5.596;2024-03-02T09:35:07;0.70;;;0.57;;
17564;SDS011;62994;52.126;5.596;2024-03-02T09:37:40;3.10;;;0.75;;
17564;SDS011;62994;52.126;5.596;2024-03-02T09:40:07;2.95;;;1.00;;
17564;SDS011;62994;52.126;5.596;2024-03-02T09:42:35;1.13;;;0.50;;
17564;SDS011;62994;52.126;5.596;2024-03-02T09:45:03;1.10;;;0.60;;
17564;SDS011;62994;52.126;5.596;2024-03-02T09:47:33;1.20;;;0.90;;
17564;SDS011;62994;52.126;5.596;2024-03-02T09:50:01;1.88;;;0.75;;
17564;SDS011;62994;52.126;5.596;2024-03-02T09:52:29;2.05;;;0.95;;
17564;SDS011;62994;52.126;5.596;2024-03-02T09:54:57;3.67;;;0.77;;
17564;SDS011;62994;52.126;5.596;2024-03-02T09:57:25;4.97;;;0.85;;
17564;SDS011;62994;52.126;5.596;2024-03-02T09:59:52;0.60;;;0.60;;
17564;SDS011;62994;52.126;5.596;2024-03-02T10:02:20;0.70;;;0.70;;
17564;SDS011;62994;52.126;5.596;2024-03-02T10:04:50;2.58;;;1.00;;
17564;SDS011;62994;52.126;5.596;2024-03-02T10:07:17;0.60;;;0.60;;
17564;SDS011;62994;52.126;5.596;2024-03-02T10:09:45;2.10;;;0.70;;
17564;SDS011;62994;52.126;5.596;2024-03-02T10:12:13;1.45;;;0.50;;
17564;SDS011;62994;52.126;5.596;2024-03-02T10:14:41;0.50;;;0.50;;
17564;SDS011;62994;52.126;5.596;2024-03-02T10:17:13;1.75;;;0.68;;
17564;SDS011;62994;52.126;5.596;2024-03-02T10:19:43;1.02;;;0.75;;
17564;SDS011;62994;52.126;5.596;2024-03-02T10:22:11;1.67;;;0.60;;
17564;SDS011;62994;52.126;5.596;2024-03-02T10:24:40;2.17;;;0.60;;
17564;SDS011;62994;52.126;5.596;2024-03-02T10:27:14;0.57;;;0.57;;
17564;SDS011;62994;52.126;5.596;2024-03-02T10:29:45;3.45;;;0.88;;
17564;SDS011;62994;52.126;5.596;2024-03-02T10:32:12;4.53;;;0.77;;
17564;SDS011;62994;52.126;5.596;2024-03-02T10:34:40;2.60;;;0.50;;
17564;SDS011;62994;52.126;5.596;2024-03-02T10:37:07;1.15;;;0.70;;
17564;SDS011;62994;52.126;5.596;2024-03-02T10:39:38;2.50;;;0.80;;
17564;SDS011;62994;52.126;5.596;2024-03-02T10:42:11;1.52;;;0.55;;
17564;SDS011;62994;52.126;5.596;2024-03-02T10:44:40;0.65;;;0.63;;
17564;SDS011;62994;52.126;5.596;2024-03-02T10:47:08;1.08;;;0.75;;
17564;SDS011;62994;52.126;5.596;2024-03-02T10:49:38;0.80;;;0.80;;
17564;SDS011;62994;52.126;5.596;2024-03-02T10:52:09;1.02;;;0.80;;
17564;SDS011;62994;52.126;5.596;2024-03-02T10:54:42;2.03;;;0.50;;
17564;SDS011;62994;52.126;5.596;2024-03-02T10:57:09;3.63;;;0.63;;
17564;SDS011;62994;52.126;5.596;2024-03-02T10:59:40;1.50;;;0.70;;
17564;SDS011;62994;52.126;5.596;2024-03-02T11:02:21;1.17;;;0.65;;
17564;SDS011;62994;52.126;5.596;2024-03-02T11:04:54;3.00;;;0.90;;
17564;SDS011;62994;52.126;5.596;2024-03-02T11:07:22;0.52;;;0.52;;
17564;SDS011;62994;52.126;5.596;2024-03-02T11:09:53;1.95;;;0.75;;
17564;SDS011;62994;52.126;5.596;2024-03-02T11:12:39;3.00;;;0.80;;
17564;SDS011;62994;52.126;5.596;2024-03-02T11:15:17;1.17;;;0.80;;
17564;SDS011;62994;52.126;5.596;2024-03-02T11:17:45;1.90;;;0.68;;
17564;SDS011;62994;52.126;5.596;2024-03-02T11:20:13;0.88;;;0.63;;
17564;SDS011;62994;52.126;5.596;2024-03-02T11:22:44;0.93;;;0.60;;
17564;SDS011;62994;52.126;5.596;2024-03-02T11:25:24;3.40;;;1.10;;
17564;SDS011;62994;52.126;5.596;2024-03-02T11:27:59;3.53;;;0.70;;
17564;SDS011;62994;52.126;5.596;2024-03-02T11:33:25;1.55;;;0.93;;
17564;SDS011;62994;52.126;5.596;2024-03-02T11:35:56;1.33;;;0.85;;
17564;SDS011;62994;52.126;5.596;2024-03-02T11:38:30;0.70;;;0.70;;
17564;SDS011;62994;52.126;5.596;2024-03-02T11:41:05;2.90;;;1.20;;
17564;SDS011;62994;52.126;5.596;2024-03-02T11:43:43;1.40;;;1.30;;
17564;SDS011;62994;52.126;5.596;2024-03-02T11:46:22;6.03;;;5.30;;
17564;SDS011;62994;52.126;5.596;2024-03-02T11:48:49;10.23;;;7.97;;
17564;SDS011;62994;52.126;5.596;2024-03-02T11:51:16;6.70;;;3.55;;
17564;SDS011;62994;52.126;5.596;2024-03-02T11:53:44;2.45;;;1.00;;
17564;SDS011;62994;52.126;5.596;2024-03-02T11:56:14;0.82;;;0.80;;
17564;SDS011;62994;52.126;5.596;2024-03-02T11:58:45;3.30;;;2.78;;
17564;SDS011;62994;52.126;5.596;2024-03-02T12:01:14;2.85;;;1.50;;
17564;SDS011;62994;52.126;5.596;2024-03-02T12:03:41;1.50;;;1.20;;
17564;SDS011;62994;52.126;5.596;2024-03-02T12:06:09;3.22;;;3.00;;
17564;SDS011;62994;52.126;5.596;2024-03-02T12:08:36;3.55;;;3.15;;
17564;SDS011;62994;52.126;5.596;2024-03-02T12:11:04;3.90;;;2.90;;
17564;SDS011;62994;52.126;5.596;2024-03-02T12:13:33;3.83;;;3.53;;
17564;SDS011;62994;52.126;5.596;2024-03-02T12:16:00;4.60;;;4.30;;
17564;SDS011;62994;52.126;5.596;2024-03-02T12:18:27;4.18;;;3.88;;
17564;SDS011;62994;52.126;5.596;2024-03-02T12:20:54;1.73;;;1.52;;
17564;SDS011;62994;52.126;5.596;2024-03-02T12:23:23;1.02;;;0.68;;
17564;SDS011;62994;52.126;5.596;2024-03-02T12:25:50;1.98;;;0.65;;
17564;SDS011;62994;52.126;5.596;2024-03-02T12:28:18;1.17;;;0.90;;
17564;SDS011;62994;52.126;5.596;2024-03-02T12:30:47;3.00;;;2.25;;
17564;SDS011;62994;52.126;5.596;2024-03-02T12:33:22;1.75;;;1.65;;
17564;SDS011;62994;52.126;5.596;2024-03-02T12:35:50;1.10;;;1.00;;
17564;SDS011;62994;52.126;5.596;2024-03-02T12:38:18;1.83;;;1.17;;
17564;SDS011;62994;52.126;5.596;2024-03-02T12:40:49;0.82;;;0.75;;
17564;SDS011;62994;52.126;5.596;2024-03-02T12:43:16;1.20;;;0.52;;
17564;SDS011;62994;52.126;5.596;2024-03-02T12:45:43;2.50;;;0.88;;
17564;SDS011;62994;52.126;5.596;2024-03-02T12:48:11;1.63;;;0.57;;
17564;SDS011;62994;52.126;5.596;2024-03-02T12:50:40;1.65;;;0.75;;
17564;SDS011;62994;52.126;5.596;2024-03-02T12:53:13;2.08;;;0.68;;
17564;SDS011;62994;52.126;5.596;2024-03-02T12:55:41;1.02;;;0.93;;
17564;SDS011;62994;52.126;5.596;2024-03-02T12:58:08;2.35;;;0.80;;
17564;SDS011;62994;52.126;5.596;2024-03-02T13:00:42;0.90;;;0.70;;
17564;SDS011;62994;52.126;5.596;2024-03-02T13:03:09;1.65;;;0.80;;
17564;SDS011;62994;52.126;5.596;2024-03-02T13:05:40;0.95;;;0.70;;
17564;SDS011;62994;52.126;5.596;2024-03-02T13:08:06;1.77;;;0.70;;
17564;SDS011;62994;52.126;5.596;2024-03-02T13:10:34;1.70;;;0.80;;
17564;SDS011;62994;52.126;5.596;2024-03-02T13:13:01;1.67;;;0.90;;
17564;SDS011;62994;52.126;5.596;2024-03-02T13:15:28;0.95;;;0.90;;
17564;SDS011;62994;52.126;5.596;2024-03-02T13:17:58;1.27;;;0.60;;
17564;SDS011;62994;52.126;5.596;2024-03-02T13:20:29;0.60;;;0.60;;
17564;SDS011;62994;52.126;5.596;2024-03-02T13:22:59;2.10;;;0.90;;
17564;SDS011;62994;52.126;5.596;2024-03-02T13:25:26;1.63;;;0.80;;
17564;SDS011;62994;52.126;5.596;2024-03-02T13:27:53;0.70;;;0.50;;
17564;SDS011;62994;52.126;5.596;2024-03-02T13:30:20;0.77;;;0.60;;
17564;SDS011;62994;52.126;5.596;2024-03-02T13:32:47;1.17;;;0.70;;
17564;SDS011;62994;52.126;5.596;2024-03-02T13:35:14;2.65;;;1.00;;
17564;SDS011;62994;52.126;5.596;2024-03-02T13:37:41;1.52;;;0.77;;
17564;SDS011;62994;52.126;5.596;2024-03-02T13:40:09;0.65;;;0.65;;
17564;SDS011;62994;52.126;5.596;2024-03-02T13:42:41;1.48;;;1.00;;
17564;SDS011;62994;52.126;5.596;2024-03-02T13:45:09;3.25;;;0.98;;
17564;SDS011;62994;52.126;5.596;2024-03-02T13:47:36;1.00;;;0.90;;
17564;SDS011;62994;52.126;5.596;2024-03-02T13:50:03;2.85;;;0.80;;
17564;SDS011;62994;52.126;5.596;2024-03-02T13:52:31;1.05;;;1.00;;
17564;SDS011;62994;52.126;5.596;2024-03-02T13:54:58;0.77;;;0.65;;
17564;SDS011;62994;52.126;5.596;2024-03-02T13:57:26;5.38;;;0.90;;
17564;SDS011;62994;52.126;5.596;2024-03-02T13:59:53;2.83;;;1.00;;
17564;SDS011;62994;52.126;5.596;2024-03-02T14:02:21;0.85;;;0.65;;
17564;SDS011;62994;52.126;5.596;2024-03-02T14:04:48;1.52;;;0.80;;
17564;SDS011;62994;52.126;5.596;2024-03-02T14:07:15;1.42;;;0.95;;
17564;SDS011;62994;52.126;5.596;2024-03-02T14:09:42;1.10;;;0.77;;
17564;SDS011;62994;52.126;5.596;2024-03-02T14:12:10;1.00;;;0.82;;
17564;SDS011;62994;52.126;5.596;2024-03-02T14:14:40;2.38;;;2.17;;
17564;SDS011;62994;52.126;5.596;2024-03-02T14:17:06;1.25;;;1.00;;
17564;SDS011;62994;52.126;5.596;2024-03-02T14:19:39;2.08;;;1.08;;
17564;SDS011;62994;52.126;5.596;2024-03-02T14:22:06;3.35;;;1.05;;
17564;SDS011;62994;52.126;5.596;2024-03-02T14:24:34;1.40;;;1.15;;
17564;SDS011;62994;52.126;5.596;2024-03-02T14:27:01;0.80;;;0.80;;
17564;SDS011;62994;52.126;5.596;2024-03-02T14:29:29;1.10;;;1.10;;
17564;SDS011;62994;52.126;5.596;2024-03-02T14:31:59;1.08;;;0.85;;
17564;SDS011;62994;52.126;5.596;2024-03-02T14:34:26;1.92;;;0.90;;
17564;SDS011;62994;52.126;5.596;2024-03-02T14:36:53;0.70;;;0.65;;
17564;SDS011;62994;52.126;5.596;2024-03-02T14:39:20;1.98;;;0.98;;
17564;SDS011;62994;52.126;5.596;2024-03-02T14:41:48;0.93;;;0.60;;
17564;SDS011;62994;52.126;5.596;2024-03-02T14:44:15;0.88;;;0.73;;
17564;SDS011;62994;52.126;5.596;2024-03-02T14:46:42;1.10;;;0.90;;
17564;SDS011;62994;52.126;5.596;2024-03-02T14:49:14;1.70;;;0.90;;
17564;SDS011;62994;52.126;5.596;2024-03-02T14:51:41;2.28;;;0.98;;
17564;SDS011;62994;52.126;5.596;2024-03-02T14:54:09;0.82;;;0.82;;
17564;SDS011;62994;52.126;5.596;2024-03-02T14:56:36;0.70;;;0.70;;
17564;SDS011;62994;52.126;5.596;2024-03-02T14:59:03;1.42;;;0.80;;